06:45
Airports
History
Links
Donate
Help keep this website running!
PayPal
Bitcoin
This page is community maintained. The information is intended for PC simulator navigation or reference.
Always use approved charts for navigation.
EDLZ
Soest Bad Sassendorf
Soest Bad Sassendorf (EDLZ)
Erwitte, Nordrhein-Westfalen, Germany (59597)
(C)
Lat/Lng:51° 35' 19.68" N / 8° 12' 59.98" E
51.588799 / 8.21666
Elevation:394'ft / 120mMSL
ID / ICAO:EDLZ
Runways:1
Longest:07-25
Grass 708m / 2,323ft
Controlled:Yes
Nearby Weather06:20 GMT 2017-12-12
Nearby weather at EDLP, Paderborn Lippstadt located 17.2 nautical miles from EDLZ
Altimeter: 29.41
Visibility: 2.8 statute miles
Wind: 11 knots (from 260°)
Temp: 0°c / 32°f
Humidity: %

METAR: EDLP 120620Z 26011G21KT 220V300 4500 SNRA BR OVC004 00/00 Q0996

(Powered by phpweather)
Nearby VORs <50NM
Nearby NDBs
Runway 07 / 25
Dimensions:708.1 x 30.5m 2323' x 100'ft
Surface:Grass
Runway 07 [A]Runway 25 [B]
Heading:074°TH 254°TH
Lat:
Lng:
51° 35' 16.74"N
8° 12' 42.32"E
51° 35' 22.62"N
8° 13' 17.63"E
User Notes and Comments
51° 35' 19.68" N / 8° 12' 59.98" E
Distance To
Airport ID:
Nearby Airports
(U) ARNSBERG MENDEN 15.4 NM
EDLA WSW 241°
(C) Paderborn Lippstadt 17.2 NM
EDLP ( WX ) E 84°
(U) Meschede Schueren 19.8 NM
EDKM S 177°
(C) Kamen 21.7 NM
ED03 W 270°
(C) Brilon Hochsauerland 22.5 NM
EDKO SE 124°
(C) GUTERSLOH 23.4 NM
ETUO ( WX ) N
(C) Dortmund-Wickede 26.3 NM
EDLW ( WX ) W 259°
VFR Chart
Flight Planning at SkyVector.com